Time;durP1;ratioP1;P1;durP2;ratioP2;P2;SDS_P1;SDS_P2;PMS_P1;PMS_P2;Temp;Humidity;BMP_temperature;BMP_pressure;BME280_temperature;BME280_humidity;BME280_pressure;Samples;Min_cycle;Max_cycle;Signal;HPM_P1;HPM_P2
2023/04/13 00:00:43;;;;;;;4.72;1.70;;;14.30;60.20;;;;;;5009299;28;20138;-72
2023/04/13 00:03:11;;;;;;;6.00;1.13;;;14.40;60.30;;;;;;5009852;28;20338;-73
2023/04/13 00:05:38;;;;;;;2.20;0.85;;;14.40;60.30;;;;;;5003140;28;20030;-72
2023/04/13 00:08:05;;;;;;;4.03;1.45;;;14.40;60.10;;;;;;5013773;28;20486;-72
2023/04/13 00:10:35;;;;;;;4.35;1.17;;;14.40;60.10;;;;;;5016518;28;20041;-72
2023/04/13 00:13:05;;;;;;;3.80;1.65;;;14.40;60.00;;;;;;4987940;28;20064;-72
2023/04/13 00:15:33;;;;;;;3.85;1.52;;;14.40;60.00;;;;;;5015780;28;20351;-72
2023/04/13 00:18:00;;;;;;;4.20;1.30;;;14.40;60.00;;;;;;5022381;28;20108;-72
2023/04/13 00:20:35;;;;;;;4.63;1.58;;;14.40;60.00;;;;;;5019532;28;20125;-72
2023/04/13 00:23:02;;;;;;;5.07;1.67;;;14.30;59.70;;;;;;5020198;28;20044;-72
2023/04/13 00:25:28;;;;;;;4.45;1.60;;;14.30;59.80;;;;;;5023074;28;20072;-72
2023/04/13 00:27:54;;;;;;;3.65;1.23;;;14.30;59.70;;;;;;5023333;28;20037;-72
2023/04/13 00:30:20;;;;;;;6.57;1.90;;;14.30;59.70;;;;;;5013906;28;20033;-72
2023/04/13 00:32:47;;;;;;;4.40;1.70;;;14.30;59.60;;;;;;5015207;28;20037;-72
2023/04/13 00:35:23;;;;;;;4.13;1.25;;;14.30;59.60;;;;;;5005724;28;20040;-72
2023/04/13 00:37:51;;;;;;;5.50;1.25;;;14.30;59.70;;;;;;4994382;28;20034;-72
2023/04/13 00:40:17;;;;;;;3.35;1.17;;;14.30;59.70;;;;;;5012194;28;20025;-73
2023/04/13 00:42:48;;;;;;;4.05;1.77;;;14.30;59.60;;;;;;4997320;28;20149;-72
2023/04/13 00:45:16;;;;;;;3.55;1.42;;;14.20;59.40;;;;;;5006798;28;20517;-73
2023/04/13 00:47:47;;;;;;;5.50;1.60;;;14.20;59.40;;;;;;5016957;28;20045;-72
2023/04/13 00:50:16;;;;;;;2.55;1.60;;;14.20;59.40;;;;;;5019313;28;20474;-71
2023/04/13 00:52:43;;;;;;;3.40;0.88;;;14.20;59.40;;;;;;5021380;28;20057;-72
2023/04/13 00:55:10;;;;;;;4.63;1.80;;;14.20;59.40;;;;;;5020734;28;20029;-71
2023/04/13 00:57:39;;;;;;;3.15;1.35;;;14.10;59.20;;;;;;5013562;28;20033;-72
2023/04/13 01:00:11;;;;;;;4.78;1.33;;;14.20;59.40;;;;;;5020959;28;20140;-71
2023/04/13 01:02:40;;;;;;;4.93;1.17;;;14.20;59.50;;;;;;5008268;28;20045;-72
2023/04/13 01:05:07;;;;;;;2.65;1.10;;;14.20;59.40;;;;;;5011669;28;20154;-71
2023/04/13 01:07:47;;;;;;;2.67;1.25;;;14.10;59.20;;;;;;5023215;28;20049;-72
2023/04/13 01:10:34;;;;;;;2.92;0.80;;;14.10;59.30;;;;;;5011040;28;20056;-71
2023/04/13 01:13:22;;;;;;;5.78;1.77;;;14.10;59.20;;;;;;5013351;28;20041;-72
2023/04/13 01:16:06;;;;;;;2.95;1.13;;;14.10;59.30;;;;;;5022413;28;20168;-71
2023/04/13 01:18:39;;;;;;;3.88;1.27;;;14.10;59.30;;;;;;5017982;28;20029;-71
2023/04/13 01:21:11;;;;;;;5.57;1.80;;;14.10;59.30;;;;;;5016390;28;20084;-71
2023/04/13 01:23:49;;;;;;;2.75;1.08;;;14.00;59.10;;;;;;5020528;28;20037;-71
2023/04/13 01:26:16;;;;;;;4.60;1.30;;;14.00;59.00;;;;;;5011977;28;20080;-71
2023/04/13 01:28:43;;;;;;;4.03;1.10;;;14.00;59.00;;;;;;5001386;28;20029;-71
2023/04/13 01:31:12;;;;;;;4.32;1.10;;;14.00;59.00;;;;;;5020710;28;20095;-72
2023/04/13 01:33:40;;;;;;;2.50;0.90;;;14.00;59.00;;;;;;5021188;28;20048;-71
2023/04/13 01:36:10;;;;;;;4.57;1.20;;;14.00;59.00;;;;;;5001011;28;20085;-71
2023/04/13 01:38:36;;;;;;;5.50;1.35;;;13.90;58.80;;;;;;5012647;28;20041;-71
2023/04/13 01:41:07;;;;;;;4.60;1.30;;;13.90;58.70;;;;;;5019014;28;20109;-71
2023/04/13 01:43:36;;;;;;;2.42;0.90;;;13.90;58.70;;;;;;5025255;28;20064;-71
2023/04/13 01:46:14;;;;;;;2.63;0.98;;;14.00;58.90;;;;;;5008831;28;20048;-71
2023/04/13 01:49:09;;;;;;;6.22;1.35;;;13.90;58.70;;;;;;5007597;28;20505;-72
2023/04/13 01:51:49;;;;;;;5.50;1.45;;;13.90;58.60;;;;;;5019794;28;20037;-71
2023/04/13 01:54:21;;;;;;;4.68;1.13;;;13.90;58.60;;;;;;5011730;28;20255;-72
2023/04/13 01:56:49;;;;;;;2.72;1.00;;;13.90;58.60;;;;;;5018145;28;20485;-71
2023/04/13 01:59:16;;;;;;;5.20;1.20;;;13.90;58.50;;;;;;5022664;28;20497;-72
2023/04/13 02:01:42;;;;;;;3.13;1.20;;;13.90;58.50;;;;;;5021969;28;20034;-72
2023/04/13 02:04:09;;;;;;;5.10;1.05;;;13.90;58.50;;;;;;5025383;28;20060;-72
2023/04/13 02:06:36;;;;;;;3.03;1.20;;;13.90;59.00;;;;;;5021259;28;20032;-72
2023/04/13 02:09:07;;;;;;;3.70;1.50;;;13.90;58.40;;;;;;5037752;28;20041;-71
2023/04/13 02:11:34;;;;;;;4.05;1.30;;;13.90;58.40;;;;;;5024161;28;20040;-71
2023/04/13 02:14:03;;;;;;;2.80;1.00;;;13.90;58.40;;;;;;5021901;28;20034;-72
2023/04/13 02:16:30;;;;;;;4.05;1.30;;;13.90;58.40;;;;;;5021955;28;20527;-72
2023/04/13 02:18:57;;;;;;;4.65;1.10;;;13.90;58.40;;;;;;5016084;28;20112;-72
2023/04/13 02:21:24;;;;;;;3.00;1.00;;;13.90;58.40;;;;;;5021239;28;20385;-71
2023/04/13 02:23:51;;;;;;;4.07;1.23;;;13.90;58.40;;;;;;5022481;28;20428;-72
2023/04/13 02:26:17;;;;;;;4.35;2.15;;;13.90;58.40;;;;;;5014281;28;20072;-73
2023/04/13 02:28:44;;;;;;;3.03;0.98;;;13.90;58.30;;;;;;5018693;28;20038;-71
2023/04/13 02:31:15;;;;;;;4.90;1.52;;;13.90;58.40;;;;;;5024072;28;20124;-72
2023/04/13 02:33:43;;;;;;;3.10;1.60;;;13.80;58.10;;;;;;5023787;28;20066;-71
2023/04/13 02:36:09;;;;;;;3.60;1.08;;;13.80;58.10;;;;;;5017187;28;20030;-72
2023/04/13 02:38:42;;;;;;;5.88;1.77;;;13.80;58.00;;;;;;5020571;28;20037;-72
2023/04/13 02:41:21;;;;;;;2.72;1.35;;;13.80;58.10;;;;;;5025165;28;20033;-71
2023/04/13 02:43:49;;;;;;;3.85;1.38;;;13.80;58.20;;;;;;5041093;28;20061;-72
2023/04/13 02:46:17;;;;;;;8.00;2.22;;;13.80;58.20;;;;;;5014544;28;20383;-71
2023/04/13 02:48:43;;;;;;;4.32;1.15;;;13.70;58.00;;;;;;5020300;28;20133;-71
2023/04/13 02:51:10;;;;;;;2.50;1.27;;;13.70;58.00;;;;;;5021552;28;20030;-72
2023/04/13 02:53:39;;;;;;;3.45;1.48;;;13.70;58.00;;;;;;5010790;28;20038;-71
2023/04/13 02:56:08;;;;;;;5.35;1.40;;;13.70;58.00;;;;;;5022997;28;20716;-72
2023/04/13 02:58:34;;;;;;;2.92;1.20;;;13.70;58.00;;;;;;5021264;28;20053;-71
2023/04/13 03:01:04;;;;;;;3.95;1.60;;;13.60;57.80;;;;;;5023591;28;20358;-71
2023/04/13 03:03:30;;;;;;;4.07;1.75;;;13.70;58.00;;;;;;5014831;28;20030;-71
2023/04/13 03:05:57;;;;;;;3.70;1.10;;;13.60;57.80;;;;;;5023344;28;20040;-72
2023/04/13 03:08:35;;;;;;;5.57;2.58;;;13.60;57.80;;;;;;5017920;28;20037;-71
2023/04/13 03:11:08;;;;;;;4.43;1.05;;;13.60;57.80;;;;;;5023856;28;20045;-71
2023/04/13 03:13:34;;;;;;;5.50;1.20;;;13.60;57.80;;;;;;5023942;28;20123;-72
2023/04/13 03:16:01;;;;;;;2.63;1.25;;;13.60;57.70;;;;;;5016869;28;20030;-72
2023/04/13 03:18:27;;;;;;;4.70;1.95;;;13.60;57.70;;;;;;5020958;28;20060;-72
2023/04/13 03:20:53;;;;;;;4.57;1.73;;;13.60;57.80;;;;;;5007404;28;20048;-72
2023/04/13 03:23:22;;;;;;;5.05;1.30;;;13.60;57.80;;;;;;5015876;28;20030;-72
2023/04/13 03:25:48;;;;;;;6.07;1.60;;;13.60;57.80;;;;;;5023701;28;20094;-72
2023/04/13 03:28:17;;;;;;;7.57;1.10;;;13.60;57.80;;;;;;5019155;28;20029;-72
2023/04/13 03:30:45;;;;;;;4.25;1.70;;;13.60;57.70;;;;;;5017596;28;20034;-71
2023/04/13 03:33:11;;;;;;;6.43;1.67;;;13.50;57.60;;;;;;5008884;28;20042;-72
2023/04/13 03:35:38;;;;;;;4.18;2.08;;;13.50;57.60;;;;;;5024510;28;20061;-72
2023/04/13 03:38:09;;;;;;;4.47;1.52;;;13.50;57.60;;;;;;5020946;28;20441;-72
2023/04/13 03:40:37;;;;;;;3.60;1.40;;;13.50;57.60;;;;;;5015616;28;20038;-73
2023/04/13 03:43:05;;;;;;;6.38;1.40;;;13.50;57.60;;;;;;5020534;28;20038;-72
2023/04/13 03:45:34;;;;;;;3.55;1.52;;;13.50;57.60;;;;;;5010548;28;20389;-72
2023/04/13 03:48:04;;;;;;;3.35;1.23;;;13.40;57.90;;;;;;5022693;28;20045;-72
2023/04/13 03:50:31;;;;;;;4.50;1.52;;;13.40;57.40;;;;;;5007719;28;20559;-72
2023/04/13 03:52:57;;;;;;;6.05;1.95;;;13.40;57.40;;;;;;5020148;28;20494;-71
2023/04/13 03:55:23;;;;;;;4.25;1.00;;;13.40;57.40;;;;;;5023663;28;20048;-72
2023/04/13 03:57:51;;;;;;;3.72;1.40;;;13.40;57.40;;;;;;5026948;28;20061;-72
2023/04/13 04:00:21;;;;;;;5.75;1.50;;;13.40;57.40;;;;;;5015883;28;20030;-71
2023/04/13 04:03:02;;;;;;;6.53;2.33;;;13.40;57.40;;;;;;5014093;28;20056;-71
2023/04/13 04:05:39;;;;;;;5.28;1.45;;;13.30;57.20;;;;;;5022875;28;20046;-71
2023/04/13 04:08:05;;;;;;;5.18;1.52;;;13.30;57.80;;;;;;5020027;28;20202;-72
2023/04/13 04:10:31;;;;;;;5.63;1.77;;;13.30;57.20;;;;;;5016717;28;20021;-72
2023/04/13 04:12:58;;;;;;;6.07;1.58;;;13.30;57.80;;;;;;5015565;28;20045;-72
2023/04/13 04:15:26;;;;;;;5.35;1.35;;;13.20;57.10;;;;;;5014999;28;20034;-72
2023/04/13 04:17:59;;;;;;;3.47;1.30;;;13.30;57.30;;;;;;5025664;28;20685;-72
2023/04/13 04:20:25;;;;;;;4.72;1.40;;;13.30;57.30;;;;;;5008199;28;20053;-72
2023/04/13 04:22:52;;;;;;;4.35;1.55;;;13.30;57.30;;;;;;5015299;28;20528;-72
2023/04/13 04:25:21;;;;;;;5.93;1.98;;;13.30;57.30;;;;;;5018326;28;20034;-72
2023/04/13 04:27:56;;;;;;;6.45;1.55;;;13.20;57.20;;;;;;5019002;28;20044;-72
2023/04/13 04:30:23;;;;;;;5.70;1.83;;;13.30;57.50;;;;;;5026232;28;20132;-72
2023/04/13 04:32:53;;;;;;;3.20;1.50;;;13.20;57.30;;;;;;5025819;28;20045;-72
2023/04/13 04:35:24;;;;;;;4.53;1.58;;;13.20;57.30;;;;;;5018546;28;20074;-72
2023/04/13 04:37:54;;;;;;;7.22;2.35;;;13.20;57.30;;;;;;5014393;28;20037;-72
2023/04/13 04:40:21;;;;;;;5.95;1.90;;;13.20;57.30;;;;;;5026099;28;20022;-72
2023/04/13 04:42:47;;;;;;;4.65;1.77;;;13.30;57.50;;;;;;5010654;28;20037;-71
2023/04/13 04:45:26;;;;;;;4.65;2.13;;;13.20;57.30;;;;;;5012396;28;20030;-72
2023/04/13 04:47:56;;;;;;;7.35;2.42;;;13.20;57.30;;;;;;5009164;28;20045;-72
2023/04/13 04:50:24;;;;;;;4.20;1.58;;;13.20;57.30;;;;;;5017437;28;20029;-72
2023/04/13 04:52:58;;;;;;;5.53;2.55;;;13.20;57.20;;;;;;5019017;28;20179;-73
2023/04/13 04:55:24;;;;;;;5.43;2.20;;;13.20;57.30;;;;;;5011281;28;20030;-72
2023/04/13 04:57:50;;;;;;;3.83;1.52;;;13.30;57.50;;;;;;5018392;28;20037;-72
2023/04/13 05:00:19;;;;;;;8.00;2.45;;;13.30;57.40;;;;;;5019426;28;20521;-72
2023/04/13 05:03:00;;;;;;;7.30;1.95;;;13.30;57.40;;;;;;5019038;28;20110;-71
2023/04/13 05:05:30;;;;;;;2.83;1.90;;;13.30;57.40;;;;;;5017807;28;20188;-72
2023/04/13 05:08:00;;;;;;;5.28;1.52;;;13.30;57.90;;;;;;5007743;28;20034;-72
2023/04/13 05:10:28;;;;;;;3.97;1.40;;;13.30;57.40;;;;;;5004725;28;20085;-71
2023/04/13 05:12:56;;;;;;;5.38;1.65;;;13.30;57.40;;;;;;5020776;28;20045;-71
2023/04/13 05:15:23;;;;;;;5.25;1.17;;;13.30;58.00;;;;;;5022484;28;20030;-72
2023/04/13 05:17:51;;;;;;;5.32;2.15;;;13.40;57.60;;;;;;5019641;28;20029;-72
2023/04/13 05:20:18;;;;;;;5.55;1.65;;;13.40;57.70;;;;;;5021028;28;20026;-72
2023/04/13 05:22:53;;;;;;;5.18;2.33;;;13.40;57.70;;;;;;5021017;28;20034;-72
2023/04/13 05:25:19;;;;;;;4.72;2.20;;;13.40;57.70;;;;;;5012349;28;20056;-72
2023/04/13 05:27:46;;;;;;;3.97;1.83;;;13.50;57.90;;;;;;5018958;28;20042;-72
2023/04/13 05:30:13;;;;;;;4.90;1.27;;;13.50;57.90;;;;;;5033088;28;20026;-73
2023/04/13 05:32:42;;;;;;;4.82;1.45;;;13.60;58.10;;;;;;5001653;28;20116;-73
2023/04/13 05:35:09;;;;;;;5.55;1.40;;;13.60;58.10;;;;;;5024596;28;20029;-73
2023/04/13 05:37:38;;;;;;;5.95;1.70;;;13.70;58.10;;;;;;5015546;28;20662;-72
2023/04/13 05:40:12;;;;;;;9.15;2.53;;;13.80;58.20;;;;;;5003022;28;20095;-74
2023/04/13 05:42:40;;;;;;;4.50;1.33;;;13.80;58.20;;;;;;4993677;28;20390;-74
2023/04/13 05:45:08;;;;;;;5.45;1.35;;;13.90;58.20;;;;;;5017445;28;20030;-73
2023/04/13 05:47:37;;;;;;;5.57;1.92;;;13.90;58.00;;;;;;5009696;28;20057;-75
2023/04/13 05:50:10;;;;;;;6.20;2.92;;;13.90;57.80;;;;;;5013264;28;20489;-75
2023/04/13 05:52:36;;;;;;;5.53;1.50;;;13.80;57.50;;;;;;5016916;28;20447;-75
2023/04/13 05:55:03;;;;;;;4.90;1.60;;;13.80;57.50;;;;;;5017669;28;20040;-75
2023/04/13 05:57:30;;;;;;;6.75;1.85;;;13.70;57.30;;;;;;5012009;28;20128;-75
2023/04/13 06:00:00;;;;;;;4.80;1.42;;;13.60;57.20;;;;;;5008034;28;20338;-73
2023/04/13 06:02:40;;;;;;;9.82;1.30;;;13.50;57.20;;;;;;5016526;28;20042;-74
2023/04/13 06:05:12;;;;;;;6.35;1.45;;;13.50;57.80;;;;;;5017050;28;20299;-74
2023/04/13 06:07:42;;;;;;;5.53;1.48;;;13.60;58.30;;;;;;5012779;28;20041;-75
2023/04/13 06:10:09;;;;;;;5.55;1.67;;;13.60;58.30;;;;;;5011783;28;20115;-76
2023/04/13 06:12:35;;;;;;;6.82;2.00;;;13.70;58.30;;;;;;5011932;28;20106;-74
2023/04/13 06:15:01;;;;;;;7.10;3.38;;;13.80;58.40;;;;;;5014538;28;20056;-74
2023/04/13 06:17:27;;;;;;;4.88;2.30;;;13.80;58.40;;;;;;4997577;28;20030;-74
2023/04/13 06:19:53;;;;;;;6.50;1.92;;;13.80;58.40;;;;;;5013579;28;20025;-73
2023/04/13 06:22:19;;;;;;;7.60;2.45;;;13.80;58.40;;;;;;5014622;28;20383;-75
2023/04/13 06:24:45;;;;;;;5.57;2.05;;;13.90;58.60;;;;;;5010941;28;20552;-74
2023/04/13 06:27:11;;;;;;;6.45;2.00;;;13.90;58.50;;;;;;5014958;28;20041;-74
2023/04/13 06:29:39;;;;;;;5.95;2.15;;;14.10;58.80;;;;;;4997413;28;20040;-74
2023/04/13 06:32:10;;;;;;;6.47;2.00;;;14.20;58.70;;;;;;5007228;28;20049;-74
2023/04/13 06:34:36;;;;;;;6.22;2.10;;;14.40;58.90;;;;;;4998608;28;20037;-74
2023/04/13 06:37:03;;;;;;;4.78;1.67;;;14.50;58.50;;;;;;5012714;28;20085;-74
2023/04/13 06:39:36;;;;;;;7.35;1.90;;;14.70;58.40;;;;;;5004469;28;20061;-74
2023/04/13 06:42:03;;;;;;;6.80;2.42;;;14.70;57.90;;;;;;5019070;28;20164;-74
2023/04/13 06:44:52;;;;;;;8.38;2.10;;;14.80;58.00;;;;;;5017890;28;20041;-74
2023/04/13 06:47:19;;;;;;;7.47;2.30;;;14.80;57.60;;;;;;5015438;28;20127;-74
2023/04/13 06:49:45;;;;;;;6.15;1.88;;;14.90;57.50;;;;;;4990858;28;20128;-74
2023/04/13 06:52:11;;;;;;;5.82;2.25;;;15.00;57.40;;;;;;5006448;28;20205;-73
2023/04/13 06:54:38;;;;;;;5.95;1.63;;;14.90;56.90;;;;;;4973677;28;20265;-74
2023/04/13 06:57:12;;;;;;;8.40;2.58;;;14.90;56.80;;;;;;4991470;28;20022;-73
2023/04/13 06:59:40;;;;;;;7.18;2.38;;;15.00;57.00;;;;;;4989133;28;20037;-73
2023/04/13 07:02:08;;;;;;;7.13;2.55;;;15.10;56.80;;;;;;5027746;28;20355;-74
2023/04/13 07:04:36;;;;;;;6.25;1.85;;;15.30;56.80;;;;;;5020524;28;20018;-75
2023/04/13 07:07:02;;;;;;;7.93;1.70;;;15.40;56.60;;;;;;5009908;28;20026;-73
2023/04/13 07:09:31;;;;;;;5.28;2.20;;;15.60;56.40;;;;;;5020227;28;20034;-74
2023/04/13 07:12:06;;;;;;;9.52;2.22;;;15.90;56.30;;;;;;5016186;28;20390;-75
2023/04/13 07:14:37;;;;;;;6.55;2.30;;;16.10;55.70;;;;;;5011232;28;20044;-74
2023/04/13 07:17:05;;;;;;;5.10;1.60;;;16.30;55.40;;;;;;5029190;28;20029;-75
2023/04/13 07:19:33;;;;;;;8.40;2.28;;;16.30;54.90;;;;;;5006073;28;20037;-74
2023/04/13 07:22:01;;;;;;;5.70;2.13;;;16.40;54.60;;;;;;5001712;28;20403;-75
2023/04/13 07:24:29;;;;;;;4.97;1.50;;;16.30;54.20;;;;;;5001963;28;20026;-74
2023/04/13 07:26:57;;;;;;;6.28;2.97;;;16.20;54.20;;;;;;5001343;28;20507;-73
2023/04/13 07:29:24;;;;;;;6.30;2.15;;;16.20;54.10;;;;;;4987490;28;20453;-73
2023/04/13 07:32:01;;;;;;;6.50;2.00;;;16.20;53.90;;;;;;4995090;28;20041;-74
2023/04/13 07:34:31;;;;;;;;;;;16.20;53.80;;;;;;4991567;28;20065;-74
2023/04/13 07:36:57;;;;;;;5.05;1.70;;;16.10;53.70;;;;;;5001738;28;19991;-73
2023/04/13 07:39:23;;;;;;;5.97;2.00;;;16.10;53.90;;;;;;4990531;28;20041;-72
2023/04/13 07:41:52;;;;;;;5.53;1.70;;;16.00;53.70;;;;;;4998784;28;20437;-74
2023/04/13 07:44:36;;;;;;;4.97;2.13;;;16.00;53.70;;;;;;4995912;28;20034;-74
2023/04/13 07:47:03;;;;;;;4.97;1.77;;;16.00;53.60;;;;;;4993474;28;20098;-73
2023/04/13 07:49:30;;;;;;;6.57;1.25;;;16.00;53.40;;;;;;5000804;28;20044;-74
2023/04/13 07:51:57;;;;;;;3.80;1.70;;;16.10;53.30;;;;;;4992910;28;20053;-74
2023/04/13 07:54:26;;;;;;;4.20;1.77;;;16.10;53.10;;;;;;4997224;28;20517;-73
2023/04/13 07:56:55;;;;;;;6.00;2.00;;;16.20;53.00;;;;;;5001490;28;20052;-74
2023/04/13 07:59:24;;;;;;;4.32;1.88;;;16.30;52.90;;;;;;4994213;28;20107;-74
2023/04/13 08:01:52;;;;;;;3.65;1.38;;;16.40;53.00;;;;;;4976527;28;20038;-74
2023/04/13 08:04:20;;;;;;;5.63;1.65;;;16.50;53.10;;;;;;4982540;28;20052;-75
2023/04/13 08:06:47;;;;;;;3.53;1.70;;;16.40;52.80;;;;;;4994305;28;20041;-75
2023/04/13 08:09:15;;;;;;;4.93;1.52;;;16.40;52.60;;;;;;4992084;28;20037;-75
2023/04/13 08:11:41;;;;;;;5.13;1.92;;;16.40;52.50;;;;;;4996585;28;20149;-75
2023/04/13 08:14:10;;;;;;;4.20;1.75;;;16.40;52.50;;;;;;4982351;28;20117;-74
2023/04/13 08:16:39;;;;;;;5.07;1.58;;;16.30;52.30;;;;;;4986075;28;20065;-74
2023/04/13 08:19:07;;;;;;;5.35;1.92;;;16.20;52.20;;;;;;4991108;28;20074;-74
2023/04/13 08:21:40;;;;;;;4.18;2.05;;;16.10;52.10;;;;;;5004816;28;20033;-75
2023/04/13 08:24:06;;;;;;;5.28;2.00;;;16.00;52.00;;;;;;4985651;28;20052;-75
2023/04/13 08:26:32;;;;;;;6.70;1.92;;;15.90;52.00;;;;;;4989077;28;20029;-75
2023/04/13 08:29:00;;;;;;;5.75;1.98;;;15.90;52.00;;;;;;5001114;28;20046;-74
2023/04/13 08:31:26;;;;;;;4.40;1.92;;;15.90;52.00;;;;;;5000315;28;20168;-75
2023/04/13 08:33:56;;;;;;;8.73;1.85;;;15.80;51.90;;;;;;4997133;28;20030;-74
2023/04/13 08:36:23;;;;;;;5.68;2.42;;;15.80;52.00;;;;;;5006846;28;20026;-74
2023/04/13 08:38:55;;;;;;;6.57;2.45;;;15.80;52.10;;;;;;4997508;28;20033;-75
2023/04/13 08:41:23;;;;;;;3.58;1.40;;;15.70;51.90;;;;;;5013401;28;20041;-74
2023/04/13 08:43:51;;;;;;;6.72;2.08;;;15.70;52.00;;;;;;5018352;28;20064;-74
2023/04/13 08:46:20;;;;;;;6.10;2.00;;;15.60;51.90;;;;;;5000874;28;20045;-75
2023/04/13 08:48:52;;;;;;;6.38;1.42;;;15.60;52.00;;;;;;4996855;28;20081;-75
2023/04/13 08:51:27;;;;;;;5.35;1.70;;;15.60;52.00;;;;;;4984517;28;20540;-74
2023/04/13 08:53:57;;;;;;;3.92;1.65;;;15.60;52.10;;;;;;4998127;28;20448;-74
2023/04/13 08:56:29;;;;;;;5.80;2.33;;;15.50;52.00;;;;;;4991408;28;20038;-75
2023/04/13 08:59:02;;;;;;;5.40;2.90;;;15.50;52.00;;;;;;5010291;28;20038;-75
2023/04/13 09:01:30;;;;;;;;;;;15.50;52.00;;;;;;4969934;28;20100;-74
2023/04/13 09:04:09;;;;;;;4.32;1.55;;;15.50;52.10;;;;;;5018359;28;20478;-75
2023/04/13 09:06:41;;;;;;;4.97;1.60;;;15.50;52.10;;;;;;5002309;28;20469;-75
2023/04/13 09:09:14;;;;;;;3.10;1.33;;;15.50;52.10;;;;;;4994992;28;21093;-76
2023/04/13 09:11:42;;;;;;;12.00;1.63;;;15.50;52.20;;;;;;4998937;28;20110;-74
2023/04/13 09:14:09;;;;;;;3.85;1.48;;;15.50;52.50;;;;;;4991934;28;20050;-74
2023/04/13 09:16:42;;;;;;;3.47;1.25;;;15.50;53.00;;;;;;4999363;28;20026;-74
2023/04/13 09:19:27;;;;;;;3.00;1.10;;;15.60;53.30;;;;;;5018360;28;20362;-76
2023/04/13 09:21:53;;;;;;;7.55;1.63;;;15.60;53.20;;;;;;4994151;28;20069;-74
2023/04/13 09:24:19;;;;;;;4.47;1.95;;;15.70;53.40;;;;;;4995716;28;20542;-74
2023/04/13 09:26:46;;;;;;;3.13;1.33;;;15.60;53.10;;;;;;5017721;28;20029;-75
2023/04/13 09:29:17;;;;;;;3.45;1.63;;;15.70;53.20;;;;;;5018626;28;20121;-75
2023/04/13 09:31:47;;;;;;;6.55;2.45;;;15.60;52.80;;;;;;4999929;28;20026;-74
2023/04/13 09:34:24;;;;;;;4.88;1.30;;;15.70;52.80;;;;;;5019108;28;20037;-73
2023/04/13 09:36:51;;;;;;;4.47;1.35;;;15.70;52.70;;;;;;5010576;28;20481;-73
2023/04/13 09:39:24;;;;;;;2.30;1.20;;;15.80;52.60;;;;;;4994445;28;20034;-74
2023/04/13 09:41:51;;;;;;;8.77;1.60;;;15.80;52.40;;;;;;5012682;28;20036;-73
2023/04/13 09:44:26;;;;;;;4.60;1.42;;;15.80;52.30;;;;;;5001159;28;20034;-74
2023/04/13 09:46:57;;;;;;;5.07;1.40;;;15.90;52.20;;;;;;4994351;28;20277;-75
2023/04/13 09:49:24;;;;;;;3.28;1.33;;;15.90;52.10;;;;;;5015176;28;20045;-74
2023/04/13 09:51:53;;;;;;;4.10;2.30;;;15.80;51.90;;;;;;4999025;28;20036;-76
2023/04/13 09:54:22;;;;;;;3.83;1.20;;;15.90;51.90;;;;;;4993885;28;20594;-74
2023/04/13 09:56:53;;;;;;;4.60;1.20;;;16.00;51.90;;;;;;5015269;28;20037;-74
2023/04/13 09:59:22;;;;;;;5.15;1.80;;;16.00;51.70;;;;;;5000314;28;20400;-75
2023/04/13 10:01:49;;;;;;;6.13;1.70;;;16.10;51.60;;;;;;5001207;28;20207;-74
2023/04/13 10:04:18;;;;;;;6.82;2.25;;;16.10;51.40;;;;;;5014799;28;20131;-76
2023/04/13 10:06:45;;;;;;;6.15;1.52;;;16.10;51.20;;;;;;5015537;28;20033;-75
2023/04/13 10:09:11;;;;;;;6.03;1.40;;;16.20;51.20;;;;;;5014359;28;20040;-76
2023/04/13 10:11:43;;;;;;;9.13;2.88;;;16.20;50.80;;;;;;5015455;28;20033;-74
2023/04/13 10:14:31;;;;;;;17.87;2.80;;;16.30;50.30;;;;;;5011437;28;20037;-75
2023/04/13 10:17:09;;;;;;;5.65;1.73;;;16.20;49.50;;;;;;5011638;28;20065;-75
2023/04/13 10:19:47;;;;;;;7.35;1.73;;;16.20;49.80;;;;;;5006905;28;20394;-74
2023/04/13 10:22:15;;;;;;;6.00;1.33;;;16.20;49.80;;;;;;5011450;28;20036;-74
2023/04/13 10:24:42;;;;;;;9.38;2.40;;;16.30;50.00;;;;;;5017293;28;20037;-72
2023/04/13 10:27:20;;;;;;;4.85;2.47;;;16.30;50.00;;;;;;5011801;28;20498;-75
2023/04/13 10:29:47;;;;;;;5.90;1.27;;;16.40;50.20;;;;;;5014918;28;20042;-74
2023/04/13 10:32:24;;;;;;;4.90;1.30;;;16.50;50.60;;;;;;5019652;28;20033;-74
2023/04/13 10:34:50;;;;;;;3.60;0.95;;;16.50;50.70;;;;;;5016857;28;20041;-76
2023/04/13 10:37:23;;;;;;;7.65;2.10;;;16.60;51.00;;;;;;5012079;28;20057;-75
2023/04/13 10:39:59;;;;;;;4.57;1.63;;;16.60;50.90;;;;;;4989963;28;20029;-74
2023/04/13 10:42:25;;;;;;;4.45;1.42;;;16.60;50.80;;;;;;5005493;28;20406;-75
2023/04/13 10:44:53;;;;;;;2.55;1.10;;;16.70;50.90;;;;;;5005596;28;20071;-74
2023/04/13 10:47:20;;;;;;;4.60;1.35;;;16.70;51.40;;;;;;4995496;28;20042;-75
2023/04/13 10:49:47;;;;;;;2.90;0.80;;;16.80;52.00;;;;;;5013180;28;20067;-73
2023/04/13 10:52:14;;;;;;;4.85;1.02;;;17.00;52.50;;;;;;5019619;28;20403;-74
2023/04/13 10:54:43;;;;;;;2.67;1.08;;;17.10;52.70;;;;;;5006589;28;20036;-76
2023/04/13 10:57:10;;;;;;;5.72;1.20;;;17.30;53.00;;;;;;5014664;28;20037;-74
2023/04/13 10:59:41;;;;;;;4.13;1.40;;;17.30;52.70;;;;;;4988950;28;20087;-74
2023/04/13 11:02:14;;;;;;;8.15;1.38;;;17.50;52.70;;;;;;5015269;28;20542;-74
2023/04/13 11:04:45;;;;;;;6.50;1.60;;;17.60;52.60;;;;;;5011530;28;20048;-75
2023/04/13 11:07:22;;;;;;;5.65;1.45;;;17.60;52.30;;;;;;4997882;28;20536;-74
2023/04/13 11:09:51;;;;;;;5.90;1.70;;;17.60;51.80;;;;;;5004266;28;20061;-75
2023/04/13 11:12:18;;;;;;;3.22;1.13;;;17.50;51.50;;;;;;4989867;28;20037;-74
2023/04/13 11:14:48;;;;;;;4.03;1.52;;;17.60;51.60;;;;;;5010448;28;20610;-74
2023/04/13 11:17:16;;;;;;;3.03;1.15;;;17.50;51.20;;;;;;5014764;28;20028;-74
2023/04/13 11:19:54;;;;;;;4.80;1.60;;;17.60;51.20;;;;;;5015477;28;20275;-74
2023/04/13 11:22:27;;;;;;;3.47;1.38;;;17.50;50.60;;;;;;5013585;28;20503;-74
2023/04/13 11:25:03;;;;;;;;;;;17.60;50.70;;;;;;5011340;28;20031;-75
2023/04/13 11:27:29;;;;;;;6.35;1.90;;;17.50;50.50;;;;;;5014902;28;19913;-75
2023/04/13 11:30:03;;;;;;;8.45;2.17;;;17.60;50.80;;;;;;5006962;28;20482;-75
2023/04/13 11:32:31;;;;;;;5.25;1.42;;;17.60;50.50;;;;;;5000004;28;20048;-74
2023/04/13 11:35:13;;;;;;;4.97;1.50;;;17.60;50.30;;;;;;5014021;28;20037;-75
2023/04/13 11:37:47;;;;;;;5.13;1.55;;;17.60;50.00;;;;;;5016077;28;20036;-74
2023/04/13 11:40:19;;;;;;;5.82;1.58;;;17.70;50.10;;;;;;5002696;28;20104;-74
2023/04/13 11:42:47;;;;;;;3.72;1.00;;;17.70;49.80;;;;;;4999455;28;20033;-74
2023/04/13 11:45:15;;;;;;;6.35;1.65;;;17.70;49.60;;;;;;5015693;28;20432;-74
2023/04/13 11:47:41;;;;;;;5.63;1.33;;;17.70;49.40;;;;;;4998767;28;20111;-73
2023/04/13 11:50:08;;;;;;;4.55;1.10;;;17.80;49.40;;;;;;5011441;28;20464;-75
2023/04/13 11:52:35;;;;;;;4.85;1.08;;;17.80;49.30;;;;;;5010370;28;20038;-74
2023/04/13 11:55:05;;;;;;;3.80;1.30;;;17.80;49.10;;;;;;5010920;28;20030;-74
2023/04/13 11:57:32;;;;;;;4.25;1.90;;;17.90;49.10;;;;;;5012096;28;20050;-75
2023/04/13 11:59:58;;;;;;;3.45;1.75;;;17.90;48.90;;;;;;5009541;28;20025;-75
2023/04/13 12:02:27;;;;;;;4.68;1.20;;;18.00;49.00;;;;;;5012559;28;20025;-75
2023/04/13 12:04:54;;;;;;;1.98;1.00;;;18.00;48.70;;;;;;5016859;28;20071;-75
2023/04/13 12:07:20;;;;;;;4.40;1.25;;;18.10;48.80;;;;;;5003075;28;20712;-74
2023/04/13 12:09:48;;;;;;;4.00;1.35;;;18.10;48.70;;;;;;5007706;28;20040;-74
2023/04/13 12:12:16;;;;;;;6.35;1.63;;;18.20;48.70;;;;;;5018756;28;20037;-76
2023/04/13 12:14:42;;;;;;;3.22;1.00;;;18.30;48.70;;;;;;5013181;28;20044;-73
2023/04/13 12:17:12;;;;;;;2.35;0.88;;;18.40;48.80;;;;;;5002233;28;20034;-73
2023/04/13 12:19:40;;;;;;;4.78;1.33;;;18.70;49.60;;;;;;5019040;28;20029;-74
2023/04/13 12:22:05;;;;;;;6.43;1.50;;;19.10;50.10;;;;;;5014265;28;20060;-73
2023/04/13 12:24:38;;;;;;;6.03;1.25;;;19.50;50.60;;;;;;5015851;28;20486;-74
2023/04/13 12:27:05;;;;;;;2.03;1.38;;;19.90;50.70;;;;;;5003139;28;20034;-77
2023/04/13 12:29:35;;;;;;;3.72;0.90;;;20.30;50.70;;;;;;5037477;28;20043;-74
2023/04/13 12:32:02;;;;;;;2.03;0.90;;;20.70;50.60;;;;;;5036261;28;20044;-74
2023/04/13 12:34:28;;;;;;;3.47;1.23;;;21.10;50.50;;;;;;5035518;28;20064;-74
2023/04/13 12:36:56;;;;;;;1.58;1.17;;;21.40;50.40;;;;;;5037858;28;20042;-75
2023/04/13 12:39:22;;;;;;;5.45;1.60;;;21.60;50.30;;;;;;5036050;28;20030;-75
2023/04/13 12:41:48;;;;;;;6.03;1.88;;;21.60;49.90;;;;;;5043902;28;20033;-76
2023/04/13 12:44:14;;;;;;;3.90;1.27;;;21.40;49.10;;;;;;5034693;28;20742;-74
2023/04/13 12:46:41;;;;;;;4.35;1.33;;;21.00;48.20;;;;;;5014889;28;20022;-73
2023/04/13 12:49:07;;;;;;;4.38;1.38;;;20.70;48.30;;;;;;5014849;28;20151;-72
2023/04/13 12:51:33;;;;;;;6.00;2.03;;;20.60;48.70;;;;;;5017136;28;20037;-72
2023/04/13 12:53:58;;;;;;;6.93;2.05;;;20.60;49.10;;;;;;5020815;28;20116;-72
2023/04/13 12:56:25;;;;;;;5.80;1.13;;;20.60;49.20;;;;;;5016603;28;20496;-73
2023/04/13 12:58:51;;;;;;;2.30;0.70;;;20.50;49.20;;;;;;5017982;28;20079;-76